<?xml version="1.0" encoding="utf-8"?>
<gpx xmlns:xsi="http://www.w3.org/2001/XMLSchema-instance" xmlns:xsd="http://www.w3.org/2001/XMLSchema" version="1.1" creator="Shapelink.com" xmlns="http://www.topografix.com/GPX/1/1" xmlns:gpxtpx="http://www.garmin.com/xmlschemas/TrackPointExtension/v1">
  <metadata>
    <name>Gåing 0.44 km, 2013-04-15</name>
    <desc></desc>
    <author><name>Mikael Blom</name></author> 
    <time>2013-04-15T19:13:05Z</time>
  </metadata>
  <trk>
    <name>Gåing 0.44 km, 2013-04-15</name>
    <trkseg>
      <trkpt lat="59.9762894" lon="17.739619">
        <ele>34.7449</ele>
        <time>2013-04-15T19:13:05Z</time>
      </trkpt>
      <trkpt lat="59.9762943" lon="17.7396341">
        <ele>34.7449</ele>
        <time>2013-04-15T19:13:06Z</time>
      </trkpt>
      <trkpt lat="59.976301" lon="17.7396507">
        <ele>34.7449</ele>
        <time>2013-04-15T19:13:07Z</time>
      </trkpt>
      <trkpt lat="59.9763087" lon="17.7396636">
        <ele>34.2642</ele>
        <time>2013-04-15T19:13:08Z</time>
      </trkpt>
      <trkpt lat="59.9763192" lon="17.7396795">
        <ele>34.7449</ele>
        <time>2013-04-15T19:13:09Z</time>
      </trkpt>
      <trkpt lat="59.9763315" lon="17.7396945">
        <ele>35.2255</ele>
        <time>2013-04-15T19:13:10Z</time>
      </trkpt>
      <trkpt lat="59.9763451" lon="17.7397134">
        <ele>35.7061</ele>
        <time>2013-04-15T19:13:11Z</time>
      </trkpt>
      <trkpt lat="59.9763578" lon="17.739733">
        <ele>36.1868</ele>
        <time>2013-04-15T19:13:12Z</time>
      </trkpt>
      <trkpt lat="59.9763672" lon="17.7397521">
        <ele>36.6675</ele>
        <time>2013-04-15T19:13:13Z</time>
      </trkpt>
      <trkpt lat="59.976376" lon="17.7397665">
        <ele>37.1481</ele>
        <time>2013-04-15T19:13:14Z</time>
      </trkpt>
      <trkpt lat="59.9763836" lon="17.7397716">
        <ele>37.6287</ele>
        <time>2013-04-15T19:13:15Z</time>
      </trkpt>
      <trkpt lat="59.9763911" lon="17.7397729">
        <ele>38.1094</ele>
        <time>2013-04-15T19:13:16Z</time>
      </trkpt>
      <trkpt lat="59.9763955" lon="17.7397763">
        <ele>37.6287</ele>
        <time>2013-04-15T19:13:17Z</time>
      </trkpt>
      <trkpt lat="59.9764003" lon="17.7397801">
        <ele>37.6287</ele>
        <time>2013-04-15T19:13:18Z</time>
      </trkpt>
      <trkpt lat="59.9764104" lon="17.7397815">
        <ele>38.1094</ele>
        <time>2013-04-15T19:13:19Z</time>
      </trkpt>
      <trkpt lat="59.9764194" lon="17.739779">
        <ele>38.1094</ele>
        <time>2013-04-15T19:13:20Z</time>
      </trkpt>
      <trkpt lat="59.9764275" lon="17.7397713">
        <ele>38.1094</ele>
        <time>2013-04-15T19:13:21Z</time>
      </trkpt>
      <trkpt lat="59.976436" lon="17.7397603">
        <ele>38.1094</ele>
        <time>2013-04-15T19:13:22Z</time>
      </trkpt>
      <trkpt lat="59.9764434" lon="17.7397474">
        <ele>37.6287</ele>
        <time>2013-04-15T19:13:23Z</time>
      </trkpt>
      <trkpt lat="59.9764486" lon="17.7397293">
        <ele>37.6287</ele>
        <time>2013-04-15T19:13:24Z</time>
      </trkpt>
      <trkpt lat="59.9764526" lon="17.7397108">
        <ele>37.6287</ele>
        <time>2013-04-15T19:13:25Z</time>
      </trkpt>
      <trkpt lat="59.9764583" lon="17.7396951">
        <ele>37.6287</ele>
        <time>2013-04-15T19:13:26Z</time>
      </trkpt>
      <trkpt lat="59.9764613" lon="17.7396774">
        <ele>37.6287</ele>
        <time>2013-04-15T19:13:27Z</time>
      </trkpt>
      <trkpt lat="59.9764651" lon="17.7396614">
        <ele>37.6287</ele>
        <time>2013-04-15T19:13:28Z</time>
      </trkpt>
      <trkpt lat="59.9764675" lon="17.7396413">
        <ele>37.6287</ele>
        <time>2013-04-15T19:13:29Z</time>
      </trkpt>
      <trkpt lat="59.9764698" lon="17.7396176">
        <ele>37.6287</ele>
        <time>2013-04-15T19:13:30Z</time>
      </trkpt>
      <trkpt lat="59.9764746" lon="17.7395991">
        <ele>37.6287</ele>
        <time>2013-04-15T19:13:31Z</time>
      </trkpt>
      <trkpt lat="59.9764818" lon="17.7395849">
        <ele>37.6287</ele>
        <time>2013-04-15T19:13:32Z</time>
      </trkpt>
      <trkpt lat="59.9764917" lon="17.7395706">
        <ele>38.1094</ele>
        <time>2013-04-15T19:13:33Z</time>
      </trkpt>
      <trkpt lat="59.9765004" lon="17.7395567">
        <ele>38.1094</ele>
        <time>2013-04-15T19:13:34Z</time>
      </trkpt>
      <trkpt lat="59.9765072" lon="17.7395442">
        <ele>37.6287</ele>
        <time>2013-04-15T19:13:35Z</time>
      </trkpt>
      <trkpt lat="59.9765148" lon="17.739532">
        <ele>37.6287</ele>
        <time>2013-04-15T19:13:36Z</time>
      </trkpt>
      <trkpt lat="59.9765219" lon="17.7395196">
        <ele>37.6287</ele>
        <time>2013-04-15T19:13:37Z</time>
      </trkpt>
      <trkpt lat="59.9765298" lon="17.739508">
        <ele>37.6287</ele>
        <time>2013-04-15T19:13:38Z</time>
      </trkpt>
      <trkpt lat="59.9765397" lon="17.7394997">
        <ele>37.6287</ele>
        <time>2013-04-15T19:13:39Z</time>
      </trkpt>
      <trkpt lat="59.9765439" lon="17.7394808">
        <ele>37.6287</ele>
        <time>2013-04-15T19:13:40Z</time>
      </trkpt>
      <trkpt lat="59.9765526" lon="17.7394652">
        <ele>37.6287</ele>
        <time>2013-04-15T19:13:41Z</time>
      </trkpt>
      <trkpt lat="59.9765641" lon="17.739456">
        <ele>37.6287</ele>
        <time>2013-04-15T19:13:42Z</time>
      </trkpt>
      <trkpt lat="59.976575" lon="17.7394458">
        <ele>37.6287</ele>
        <time>2013-04-15T19:13:43Z</time>
      </trkpt>
      <trkpt lat="59.9765879" lon="17.7394362">
        <ele>38.1094</ele>
        <time>2013-04-15T19:13:44Z</time>
      </trkpt>
      <trkpt lat="59.9765986" lon="17.7394227">
        <ele>38.1094</ele>
        <time>2013-04-15T19:13:45Z</time>
      </trkpt>
      <trkpt lat="59.9766092" lon="17.7394103">
        <ele>38.5901</ele>
        <time>2013-04-15T19:13:46Z</time>
      </trkpt>
      <trkpt lat="59.9766198" lon="17.7394025">
        <ele>38.5901</ele>
        <time>2013-04-15T19:13:47Z</time>
      </trkpt>
      <trkpt lat="59.9766293" lon="17.7393933">
        <ele>38.5901</ele>
        <time>2013-04-15T19:13:48Z</time>
      </trkpt>
      <trkpt lat="59.9766401" lon="17.7393821">
        <ele>39.0707</ele>
        <time>2013-04-15T19:13:49Z</time>
      </trkpt>
      <trkpt lat="59.9766506" lon="17.7393724">
        <ele>39.0707</ele>
        <time>2013-04-15T19:13:50Z</time>
      </trkpt>
      <trkpt lat="59.9766599" lon="17.7393617">
        <ele>39.0707</ele>
        <time>2013-04-15T19:13:51Z</time>
      </trkpt>
      <trkpt lat="59.9766698" lon="17.7393517">
        <ele>39.0707</ele>
        <time>2013-04-15T19:13:52Z</time>
      </trkpt>
      <trkpt lat="59.9766797" lon="17.7393434">
        <ele>38.5901</ele>
        <time>2013-04-15T19:13:53Z</time>
      </trkpt>
      <trkpt lat="59.9766895" lon="17.7393346">
        <ele>39.0707</ele>
        <time>2013-04-15T19:13:54Z</time>
      </trkpt>
      <trkpt lat="59.9767003" lon="17.7393242">
        <ele>38.5901</ele>
        <time>2013-04-15T19:13:55Z</time>
      </trkpt>
      <trkpt lat="59.9767133" lon="17.7393169">
        <ele>39.0707</ele>
        <time>2013-04-15T19:13:56Z</time>
      </trkpt>
      <trkpt lat="59.9767257" lon="17.7393119">
        <ele>39.5513</ele>
        <time>2013-04-15T19:13:57Z</time>
      </trkpt>
      <trkpt lat="59.9767387" lon="17.7393078">
        <ele>39.5513</ele>
        <time>2013-04-15T19:13:58Z</time>
      </trkpt>
      <trkpt lat="59.9767521" lon="17.7393052">
        <ele>39.5513</ele>
        <time>2013-04-15T19:13:59Z</time>
      </trkpt>
      <trkpt lat="59.9767668" lon="17.7393024">
        <ele>39.5513</ele>
        <time>2013-04-15T19:14:00Z</time>
      </trkpt>
      <trkpt lat="59.9767787" lon="17.739298">
        <ele>39.5513</ele>
        <time>2013-04-15T19:14:01Z</time>
      </trkpt>
      <trkpt lat="59.9767913" lon="17.7392973">
        <ele>39.5513</ele>
        <time>2013-04-15T19:14:02Z</time>
      </trkpt>
      <trkpt lat="59.9768019" lon="17.7392937">
        <ele>39.0707</ele>
        <time>2013-04-15T19:14:03Z</time>
      </trkpt>
      <trkpt lat="59.9768129" lon="17.7392899">
        <ele>39.0707</ele>
        <time>2013-04-15T19:14:04Z</time>
      </trkpt>
      <trkpt lat="59.9768235" lon="17.7392834">
        <ele>38.5901</ele>
        <time>2013-04-15T19:14:05Z</time>
      </trkpt>
      <trkpt lat="59.9768376" lon="17.7392787">
        <ele>38.5901</ele>
        <time>2013-04-15T19:14:06Z</time>
      </trkpt>
      <trkpt lat="59.97685" lon="17.7392766">
        <ele>38.1094</ele>
        <time>2013-04-15T19:14:07Z</time>
      </trkpt>
      <trkpt lat="59.9768614" lon="17.7392724">
        <ele>37.6287</ele>
        <time>2013-04-15T19:14:08Z</time>
      </trkpt>
      <trkpt lat="59.9768745" lon="17.7392646">
        <ele>37.6287</ele>
        <time>2013-04-15T19:14:09Z</time>
      </trkpt>
      <trkpt lat="59.9768872" lon="17.7392619">
        <ele>37.6287</ele>
        <time>2013-04-15T19:14:10Z</time>
      </trkpt>
      <trkpt lat="59.9768983" lon="17.739259">
        <ele>37.6287</ele>
        <time>2013-04-15T19:14:11Z</time>
      </trkpt>
      <trkpt lat="59.9769081" lon="17.7392585">
        <ele>37.1481</ele>
        <time>2013-04-15T19:14:12Z</time>
      </trkpt>
      <trkpt lat="59.9769209" lon="17.7392567">
        <ele>37.1481</ele>
        <time>2013-04-15T19:14:13Z</time>
      </trkpt>
      <trkpt lat="59.9769325" lon="17.7392558">
        <ele>37.1481</ele>
        <time>2013-04-15T19:14:14Z</time>
      </trkpt>
      <trkpt lat="59.9769417" lon="17.7392534">
        <ele>36.6675</ele>
        <time>2013-04-15T19:14:15Z</time>
      </trkpt>
      <trkpt lat="59.9769537" lon="17.7392528">
        <ele>36.6675</ele>
        <time>2013-04-15T19:14:16Z</time>
      </trkpt>
      <trkpt lat="59.9769665" lon="17.7392529">
        <ele>36.6675</ele>
        <time>2013-04-15T19:14:17Z</time>
      </trkpt>
      <trkpt lat="59.9769762" lon="17.7392449">
        <ele>36.1868</ele>
        <time>2013-04-15T19:14:18Z</time>
      </trkpt>
      <trkpt lat="59.9769873" lon="17.7392398">
        <ele>36.1868</ele>
        <time>2013-04-15T19:14:19Z</time>
      </trkpt>
      <trkpt lat="59.9769975" lon="17.7392287">
        <ele>36.1868</ele>
        <time>2013-04-15T19:14:20Z</time>
      </trkpt>
      <trkpt lat="59.9770109" lon="17.739222">
        <ele>35.7061</ele>
        <time>2013-04-15T19:14:21Z</time>
      </trkpt>
      <trkpt lat="59.9770254" lon="17.7392155">
        <ele>35.7061</ele>
        <time>2013-04-15T19:14:22Z</time>
      </trkpt>
      <trkpt lat="59.9770396" lon="17.7392092">
        <ele>35.7061</ele>
        <time>2013-04-15T19:14:23Z</time>
      </trkpt>
      <trkpt lat="59.9770546" lon="17.7392047">
        <ele>35.7061</ele>
        <time>2013-04-15T19:14:24Z</time>
      </trkpt>
      <trkpt lat="59.9770698" lon="17.7392032">
        <ele>35.7061</ele>
        <time>2013-04-15T19:14:25Z</time>
      </trkpt>
      <trkpt lat="59.9770843" lon="17.7392032">
        <ele>35.7061</ele>
        <time>2013-04-15T19:14:26Z</time>
      </trkpt>
      <trkpt lat="59.9770983" lon="17.7391994">
        <ele>35.7061</ele>
        <time>2013-04-15T19:14:27Z</time>
      </trkpt>
      <trkpt lat="59.9771085" lon="17.7391909">
        <ele>35.2255</ele>
        <time>2013-04-15T19:14:28Z</time>
      </trkpt>
      <trkpt lat="59.9771226" lon="17.7391821">
        <ele>35.2255</ele>
        <time>2013-04-15T19:14:29Z</time>
      </trkpt>
      <trkpt lat="59.9771374" lon="17.7391765">
        <ele>35.2255</ele>
        <time>2013-04-15T19:14:30Z</time>
      </trkpt>
      <trkpt lat="59.97715" lon="17.7391683">
        <ele>35.2255</ele>
        <time>2013-04-15T19:14:31Z</time>
      </trkpt>
      <trkpt lat="59.977164" lon="17.7391626">
        <ele>35.2255</ele>
        <time>2013-04-15T19:14:32Z</time>
      </trkpt>
      <trkpt lat="59.9771779" lon="17.7391538">
        <ele>35.7061</ele>
        <time>2013-04-15T19:14:33Z</time>
      </trkpt>
      <trkpt lat="59.9771912" lon="17.7391402">
        <ele>35.7061</ele>
        <time>2013-04-15T19:14:34Z</time>
      </trkpt>
      <trkpt lat="59.9772027" lon="17.7391255">
        <ele>35.7061</ele>
        <time>2013-04-15T19:14:35Z</time>
      </trkpt>
      <trkpt lat="59.9772154" lon="17.7391156">
        <ele>35.7061</ele>
        <time>2013-04-15T19:14:36Z</time>
      </trkpt>
      <trkpt lat="59.9772283" lon="17.7391091">
        <ele>36.1868</ele>
        <time>2013-04-15T19:14:37Z</time>
      </trkpt>
      <trkpt lat="59.9772432" lon="17.7391029">
        <ele>36.1868</ele>
        <time>2013-04-15T19:14:38Z</time>
      </trkpt>
      <trkpt lat="59.9772573" lon="17.739093">
        <ele>36.6675</ele>
        <time>2013-04-15T19:14:39Z</time>
      </trkpt>
      <trkpt lat="59.977269" lon="17.7390832">
        <ele>36.6675</ele>
        <time>2013-04-15T19:14:40Z</time>
      </trkpt>
      <trkpt lat="59.97728" lon="17.7390744">
        <ele>36.6675</ele>
        <time>2013-04-15T19:14:41Z</time>
      </trkpt>
      <trkpt lat="59.9772944" lon="17.7390647">
        <ele>36.6675</ele>
        <time>2013-04-15T19:14:42Z</time>
      </trkpt>
      <trkpt lat="59.9773096" lon="17.7390533">
        <ele>37.1481</ele>
        <time>2013-04-15T19:14:43Z</time>
      </trkpt>
      <trkpt lat="59.9773271" lon="17.7390388">
        <ele>37.1481</ele>
        <time>2013-04-15T19:14:44Z</time>
      </trkpt>
      <trkpt lat="59.9773416" lon="17.7390324">
        <ele>37.6287</ele>
        <time>2013-04-15T19:14:45Z</time>
      </trkpt>
      <trkpt lat="59.9773567" lon="17.7390275">
        <ele>38.1094</ele>
        <time>2013-04-15T19:14:46Z</time>
      </trkpt>
      <trkpt lat="59.9773722" lon="17.7390197">
        <ele>38.1094</ele>
        <time>2013-04-15T19:14:47Z</time>
      </trkpt>
      <trkpt lat="59.977386" lon="17.7390117">
        <ele>38.1094</ele>
        <time>2013-04-15T19:14:48Z</time>
      </trkpt>
      <trkpt lat="59.9774028" lon="17.7389979">
        <ele>38.5901</ele>
        <time>2013-04-15T19:14:49Z</time>
      </trkpt>
      <trkpt lat="59.9774189" lon="17.738984">
        <ele>38.5901</ele>
        <time>2013-04-15T19:14:50Z</time>
      </trkpt>
      <trkpt lat="59.9774323" lon="17.7389751">
        <ele>38.5901</ele>
        <time>2013-04-15T19:14:51Z</time>
      </trkpt>
      <trkpt lat="59.9774422" lon="17.738969">
        <ele>38.5901</ele>
        <time>2013-04-15T19:14:52Z</time>
      </trkpt>
      <trkpt lat="59.9774497" lon="17.7389657">
        <ele>38.1094</ele>
        <time>2013-04-15T19:14:53Z</time>
      </trkpt>
      <trkpt lat="59.9774596" lon="17.7389621">
        <ele>38.5901</ele>
        <time>2013-04-15T19:14:54Z</time>
      </trkpt>
      <trkpt lat="59.9774696" lon="17.7389611">
        <ele>39.0707</ele>
        <time>2013-04-15T19:14:55Z</time>
      </trkpt>
      <trkpt lat="59.9774803" lon="17.7389596">
        <ele>39.5513</ele>
        <time>2013-04-15T19:14:56Z</time>
      </trkpt>
      <trkpt lat="59.9774923" lon="17.7389589">
        <ele>40.0321</ele>
        <time>2013-04-15T19:14:57Z</time>
      </trkpt>
      <trkpt lat="59.9775053" lon="17.7389553">
        <ele>40.0321</ele>
        <time>2013-04-15T19:14:58Z</time>
      </trkpt>
      <trkpt lat="59.9775198" lon="17.7389507">
        <ele>40.5128</ele>
        <time>2013-04-15T19:14:59Z</time>
      </trkpt>
      <trkpt lat="59.9775338" lon="17.7389472">
        <ele>40.9934</ele>
        <time>2013-04-15T19:15:00Z</time>
      </trkpt>
      <trkpt lat="59.9775503" lon="17.7389423">
        <ele>41.474</ele>
        <time>2013-04-15T19:15:01Z</time>
      </trkpt>
      <trkpt lat="59.9775676" lon="17.7389368">
        <ele>41.9547</ele>
        <time>2013-04-15T19:15:02Z</time>
      </trkpt>
      <trkpt lat="59.977583" lon="17.7389399">
        <ele>42.4354</ele>
        <time>2013-04-15T19:15:03Z</time>
      </trkpt>
      <trkpt lat="59.9775973" lon="17.7389392">
        <ele>42.4354</ele>
        <time>2013-04-15T19:15:04Z</time>
      </trkpt>
      <trkpt lat="59.9776111" lon="17.7389363">
        <ele>41.9547</ele>
        <time>2013-04-15T19:15:05Z</time>
      </trkpt>
      <trkpt lat="59.9776232" lon="17.7389342">
        <ele>41.9547</ele>
        <time>2013-04-15T19:15:06Z</time>
      </trkpt>
      <trkpt lat="59.9776327" lon="17.7389322">
        <ele>41.9547</ele>
        <time>2013-04-15T19:15:07Z</time>
      </trkpt>
      <trkpt lat="59.9776441" lon="17.738933">
        <ele>41.9547</ele>
        <time>2013-04-15T19:15:08Z</time>
      </trkpt>
      <trkpt lat="59.977653" lon="17.7389342">
        <ele>41.474</ele>
        <time>2013-04-15T19:15:09Z</time>
      </trkpt>
      <trkpt lat="59.9776649" lon="17.7389362">
        <ele>41.474</ele>
        <time>2013-04-15T19:15:10Z</time>
      </trkpt>
      <trkpt lat="59.9776792" lon="17.7389378">
        <ele>42.4354</ele>
        <time>2013-04-15T19:15:11Z</time>
      </trkpt>
      <trkpt lat="59.9776923" lon="17.7389382">
        <ele>42.916</ele>
        <time>2013-04-15T19:15:12Z</time>
      </trkpt>
      <trkpt lat="59.9777044" lon="17.738941">
        <ele>43.3966</ele>
        <time>2013-04-15T19:15:13Z</time>
      </trkpt>
      <trkpt lat="59.9777157" lon="17.7389433">
        <ele>43.3966</ele>
        <time>2013-04-15T19:15:14Z</time>
      </trkpt>
      <trkpt lat="59.9777275" lon="17.7389442">
        <ele>43.3966</ele>
        <time>2013-04-15T19:15:15Z</time>
      </trkpt>
      <trkpt lat="59.9777406" lon="17.7389477">
        <ele>43.3966</ele>
        <time>2013-04-15T19:15:16Z</time>
      </trkpt>
      <trkpt lat="59.9777541" lon="17.7389538">
        <ele>43.8773</ele>
        <time>2013-04-15T19:15:17Z</time>
      </trkpt>
      <trkpt lat="59.9777657" lon="17.7389592">
        <ele>43.3966</ele>
        <time>2013-04-15T19:15:18Z</time>
      </trkpt>
      <trkpt lat="59.9777767" lon="17.7389648">
        <ele>42.916</ele>
        <time>2013-04-15T19:15:19Z</time>
      </trkpt>
      <trkpt lat="59.9777886" lon="17.7389714">
        <ele>43.3966</ele>
        <time>2013-04-15T19:15:20Z</time>
      </trkpt>
      <trkpt lat="59.9777997" lon="17.7389756">
        <ele>43.3966</ele>
        <time>2013-04-15T19:15:21Z</time>
      </trkpt>
      <trkpt lat="59.9778093" lon="17.7389746">
        <ele>43.8773</ele>
        <time>2013-04-15T19:15:22Z</time>
      </trkpt>
      <trkpt lat="59.9778171" lon="17.7389737">
        <ele>43.8773</ele>
        <time>2013-04-15T19:15:23Z</time>
      </trkpt>
      <trkpt lat="59.9778259" lon="17.7389763">
        <ele>43.8773</ele>
        <time>2013-04-15T19:15:24Z</time>
      </trkpt>
      <trkpt lat="59.9778369" lon="17.7389824">
        <ele>43.8773</ele>
        <time>2013-04-15T19:15:25Z</time>
      </trkpt>
      <trkpt lat="59.9778451" lon="17.7389877">
        <ele>43.3966</ele>
        <time>2013-04-15T19:15:26Z</time>
      </trkpt>
      <trkpt lat="59.9778565" lon="17.7389953">
        <ele>43.3966</ele>
        <time>2013-04-15T19:15:27Z</time>
      </trkpt>
      <trkpt lat="59.9778717" lon="17.7390073">
        <ele>43.8773</ele>
        <time>2013-04-15T19:15:28Z</time>
      </trkpt>
      <trkpt lat="59.9778841" lon="17.7390155">
        <ele>43.3966</ele>
        <time>2013-04-15T19:15:29Z</time>
      </trkpt>
      <trkpt lat="59.9778964" lon="17.7390233">
        <ele>43.3966</ele>
        <time>2013-04-15T19:15:30Z</time>
      </trkpt>
      <trkpt lat="59.9779118" lon="17.7390326">
        <ele>43.3966</ele>
        <time>2013-04-15T19:15:31Z</time>
      </trkpt>
      <trkpt lat="59.977924" lon="17.7390383">
        <ele>43.3966</ele>
        <time>2013-04-15T19:15:32Z</time>
      </trkpt>
      <trkpt lat="59.9779327" lon="17.739043">
        <ele>43.3966</ele>
        <time>2013-04-15T19:15:33Z</time>
      </trkpt>
      <trkpt lat="59.9779419" lon="17.7390501">
        <ele>43.3966</ele>
        <time>2013-04-15T19:15:34Z</time>
      </trkpt>
      <trkpt lat="59.9779539" lon="17.7390537">
        <ele>43.3966</ele>
        <time>2013-04-15T19:15:35Z</time>
      </trkpt>
      <trkpt lat="59.9779675" lon="17.739059">
        <ele>43.3966</ele>
        <time>2013-04-15T19:15:36Z</time>
      </trkpt>
      <trkpt lat="59.9779802" lon="17.7390663">
        <ele>43.3966</ele>
        <time>2013-04-15T19:15:37Z</time>
      </trkpt>
      <trkpt lat="59.9779933" lon="17.739069">
        <ele>43.3966</ele>
        <time>2013-04-15T19:15:38Z</time>
      </trkpt>
      <trkpt lat="59.9780057" lon="17.739074">
        <ele>43.8773</ele>
        <time>2013-04-15T19:15:39Z</time>
      </trkpt>
      <trkpt lat="59.9780167" lon="17.7390829">
        <ele>43.8773</ele>
        <time>2013-04-15T19:15:40Z</time>
      </trkpt>
      <trkpt lat="59.9780259" lon="17.7390884">
        <ele>43.3966</ele>
        <time>2013-04-15T19:15:41Z</time>
      </trkpt>
      <trkpt lat="59.9780383" lon="17.7390983">
        <ele>43.3966</ele>
        <time>2013-04-15T19:15:42Z</time>
      </trkpt>
      <trkpt lat="59.9780552" lon="17.7391073">
        <ele>43.8773</ele>
        <time>2013-04-15T19:15:43Z</time>
      </trkpt>
      <trkpt lat="59.9780704" lon="17.7391108">
        <ele>43.3966</ele>
        <time>2013-04-15T19:15:44Z</time>
      </trkpt>
      <trkpt lat="59.9780841" lon="17.7391165">
        <ele>43.3966</ele>
        <time>2013-04-15T19:15:45Z</time>
      </trkpt>
      <trkpt lat="59.9780972" lon="17.739121">
        <ele>43.3966</ele>
        <time>2013-04-15T19:15:46Z</time>
      </trkpt>
      <trkpt lat="59.978112" lon="17.7391283">
        <ele>43.8773</ele>
        <time>2013-04-15T19:15:47Z</time>
      </trkpt>
      <trkpt lat="59.9781271" lon="17.7391335">
        <ele>43.3966</ele>
        <time>2013-04-15T19:15:48Z</time>
      </trkpt>
      <trkpt lat="59.9781415" lon="17.7391429">
        <ele>43.8773</ele>
        <time>2013-04-15T19:15:49Z</time>
      </trkpt>
      <trkpt lat="59.9781532" lon="17.7391532">
        <ele>43.8773</ele>
        <time>2013-04-15T19:15:50Z</time>
      </trkpt>
      <trkpt lat="59.9781704" lon="17.7391704">
        <ele>45.3192</ele>
        <time>2013-04-15T19:15:51Z</time>
      </trkpt>
      <trkpt lat="59.9781816" lon="17.7391821">
        <ele>45.7999</ele>
        <time>2013-04-15T19:15:52Z</time>
      </trkpt>
      <trkpt lat="59.9781958" lon="17.7391963">
        <ele>46.7612</ele>
        <time>2013-04-15T19:15:53Z</time>
      </trkpt>
      <trkpt lat="59.9782077" lon="17.7392031">
        <ele>46.7612</ele>
        <time>2013-04-15T19:15:54Z</time>
      </trkpt>
      <trkpt lat="59.9782215" lon="17.7392075">
        <ele>46.7612</ele>
        <time>2013-04-15T19:15:55Z</time>
      </trkpt>
      <trkpt lat="59.9782301" lon="17.739204">
        <ele>46.2806</ele>
        <time>2013-04-15T19:15:56Z</time>
      </trkpt>
      <trkpt lat="59.9782404" lon="17.7392041">
        <ele>45.7999</ele>
        <time>2013-04-15T19:15:57Z</time>
      </trkpt>
      <trkpt lat="59.9782517" lon="17.7392062">
        <ele>44.8386</ele>
        <time>2013-04-15T19:15:58Z</time>
      </trkpt>
      <trkpt lat="59.9782647" lon="17.7392072">
        <ele>44.8386</ele>
        <time>2013-04-15T19:15:59Z</time>
      </trkpt>
      <trkpt lat="59.9782772" lon="17.7392081">
        <ele>44.358</ele>
        <time>2013-04-15T19:16:00Z</time>
      </trkpt>
      <trkpt lat="59.9782881" lon="17.7392091">
        <ele>44.358</ele>
        <time>2013-04-15T19:16:01Z</time>
      </trkpt>
      <trkpt lat="59.9782982" lon="17.7392091">
        <ele>44.358</ele>
        <time>2013-04-15T19:16:02Z</time>
      </trkpt>
      <trkpt lat="59.978314" lon="17.7392056">
        <ele>44.358</ele>
        <time>2013-04-15T19:16:03Z</time>
      </trkpt>
      <trkpt lat="59.9783282" lon="17.7391984">
        <ele>44.358</ele>
        <time>2013-04-15T19:16:04Z</time>
      </trkpt>
      <trkpt lat="59.9783396" lon="17.7391989">
        <ele>44.358</ele>
        <time>2013-04-15T19:16:05Z</time>
      </trkpt>
      <trkpt lat="59.9783524" lon="17.739201">
        <ele>44.358</ele>
        <time>2013-04-15T19:16:06Z</time>
      </trkpt>
      <trkpt lat="59.9783647" lon="17.7392045">
        <ele>44.8386</ele>
        <time>2013-04-15T19:16:07Z</time>
      </trkpt>
      <trkpt lat="59.9783766" lon="17.7392041">
        <ele>44.8386</ele>
        <time>2013-04-15T19:16:08Z</time>
      </trkpt>
      <trkpt lat="59.9783885" lon="17.7392029">
        <ele>44.358</ele>
        <time>2013-04-15T19:16:09Z</time>
      </trkpt>
      <trkpt lat="59.9784025" lon="17.7392067">
        <ele>44.358</ele>
        <time>2013-04-15T19:16:10Z</time>
      </trkpt>
      <trkpt lat="59.9784161" lon="17.7392148">
        <ele>43.8773</ele>
        <time>2013-04-15T19:16:11Z</time>
      </trkpt>
      <trkpt lat="59.9784341" lon="17.7392179">
        <ele>43.3966</ele>
        <time>2013-04-15T19:16:12Z</time>
      </trkpt>
      <trkpt lat="59.9784477" lon="17.73922">
        <ele>42.916</ele>
        <time>2013-04-15T19:16:13Z</time>
      </trkpt>
      <trkpt lat="59.9784645" lon="17.7392223">
        <ele>42.4354</ele>
        <time>2013-04-15T19:16:14Z</time>
      </trkpt>
      <trkpt lat="59.9784771" lon="17.739229">
        <ele>42.4354</ele>
        <time>2013-04-15T19:16:15Z</time>
      </trkpt>
      <trkpt lat="59.9784885" lon="17.7392326">
        <ele>42.4354</ele>
        <time>2013-04-15T19:16:16Z</time>
      </trkpt>
      <trkpt lat="59.9785015" lon="17.7392351">
        <ele>42.4354</ele>
        <time>2013-04-15T19:16:17Z</time>
      </trkpt>
      <trkpt lat="59.9785186" lon="17.7392383">
        <ele>41.9547</ele>
        <time>2013-04-15T19:16:18Z</time>
      </trkpt>
      <trkpt lat="59.9785274" lon="17.7392402">
        <ele>41.9547</ele>
        <time>2013-04-15T19:16:19Z</time>
      </trkpt>
      <trkpt lat="59.9785384" lon="17.7392445">
        <ele>42.4354</ele>
        <time>2013-04-15T19:16:20Z</time>
      </trkpt>
      <trkpt lat="59.9785508" lon="17.7392455">
        <ele>42.916</ele>
        <time>2013-04-15T19:16:21Z</time>
      </trkpt>
      <trkpt lat="59.9785606" lon="17.7392345">
        <ele>42.4354</ele>
        <time>2013-04-15T19:16:22Z</time>
      </trkpt>
      <trkpt lat="59.9785701" lon="17.7392275">
        <ele>41.474</ele>
        <time>2013-04-15T19:16:23Z</time>
      </trkpt>
      <trkpt lat="59.9785834" lon="17.7392291">
        <ele>40.9934</ele>
        <time>2013-04-15T19:16:24Z</time>
      </trkpt>
      <trkpt lat="59.9785982" lon="17.7392352">
        <ele>40.5128</ele>
        <time>2013-04-15T19:16:25Z</time>
      </trkpt>
      <trkpt lat="59.9786168" lon="17.7392392">
        <ele>40.9934</ele>
        <time>2013-04-15T19:16:26Z</time>
      </trkpt>
      <trkpt lat="59.9786334" lon="17.7392403">
        <ele>41.474</ele>
        <time>2013-04-15T19:16:27Z</time>
      </trkpt>
      <trkpt lat="59.9786491" lon="17.7392425">
        <ele>41.9547</ele>
        <time>2013-04-15T19:16:28Z</time>
      </trkpt>
      <trkpt lat="59.9786595" lon="17.7392445">
        <ele>41.9547</ele>
        <time>2013-04-15T19:16:29Z</time>
      </trkpt>
      <trkpt lat="59.9786729" lon="17.7392489">
        <ele>41.474</ele>
        <time>2013-04-15T19:16:30Z</time>
      </trkpt>
      <trkpt lat="59.978689" lon="17.7392543">
        <ele>41.474</ele>
        <time>2013-04-15T19:16:31Z</time>
      </trkpt>
      <trkpt lat="59.9787069" lon="17.7392569">
        <ele>41.9547</ele>
        <time>2013-04-15T19:16:32Z</time>
      </trkpt>
      <trkpt lat="59.9787225" lon="17.7392564">
        <ele>41.474</ele>
        <time>2013-04-15T19:16:33Z</time>
      </trkpt>
      <trkpt lat="59.978738" lon="17.7392568">
        <ele>41.474</ele>
        <time>2013-04-15T19:16:34Z</time>
      </trkpt>
      <trkpt lat="59.9787559" lon="17.7392615">
        <ele>42.4354</ele>
        <time>2013-04-15T19:16:35Z</time>
      </trkpt>
      <trkpt lat="59.9787707" lon="17.739259">
        <ele>41.9547</ele>
        <time>2013-04-15T19:16:36Z</time>
      </trkpt>
      <trkpt lat="59.9787848" lon="17.7392603">
        <ele>42.4354</ele>
        <time>2013-04-15T19:16:37Z</time>
      </trkpt>
      <trkpt lat="59.9787967" lon="17.7392584">
        <ele>41.9547</ele>
        <time>2013-04-15T19:16:38Z</time>
      </trkpt>
      <trkpt lat="59.9788092" lon="17.7392502">
        <ele>41.9547</ele>
        <time>2013-04-15T19:16:39Z</time>
      </trkpt>
      <trkpt lat="59.978822" lon="17.7392484">
        <ele>41.9547</ele>
        <time>2013-04-15T19:16:40Z</time>
      </trkpt>
      <trkpt lat="59.9788329" lon="17.7392438">
        <ele>41.474</ele>
        <time>2013-04-15T19:16:41Z</time>
      </trkpt>
      <trkpt lat="59.9788468" lon="17.7392294">
        <ele>41.474</ele>
        <time>2013-04-15T19:16:42Z</time>
      </trkpt>
      <trkpt lat="59.9788685" lon="17.7392154">
        <ele>41.9547</ele>
        <time>2013-04-15T19:16:43Z</time>
      </trkpt>
      <trkpt lat="59.9788918" lon="17.7392016">
        <ele>41.474</ele>
        <time>2013-04-15T19:16:45Z</time>
      </trkpt>
      <trkpt lat="59.978906" lon="17.7391963">
        <ele>41.474</ele>
        <time>2013-04-15T19:16:46Z</time>
      </trkpt>
      <trkpt lat="59.9789204" lon="17.739189">
        <ele>41.474</ele>
        <time>2013-04-15T19:16:47Z</time>
      </trkpt>
      <trkpt lat="59.9789341" lon="17.7391818">
        <ele>40.9934</ele>
        <time>2013-04-15T19:16:48Z</time>
      </trkpt>
      <trkpt lat="59.9789536" lon="17.7391708">
        <ele>40.5128</ele>
        <time>2013-04-15T19:16:49Z</time>
      </trkpt>
      <trkpt lat="59.9789695" lon="17.7391631">
        <ele>40.5128</ele>
        <time>2013-04-15T19:16:50Z</time>
      </trkpt>
      <trkpt lat="59.9789835" lon="17.7391637">
        <ele>40.5128</ele>
        <time>2013-04-15T19:16:51Z</time>
      </trkpt>
      <trkpt lat="59.9789958" lon="17.7391668">
        <ele>40.0321</ele>
        <time>2013-04-15T19:16:52Z</time>
      </trkpt>
      <trkpt lat="59.9790139" lon="17.7391611">
        <ele>40.5128</ele>
        <time>2013-04-15T19:16:53Z</time>
      </trkpt>
      <trkpt lat="59.9790256" lon="17.739155">
        <ele>40.5128</ele>
        <time>2013-04-15T19:16:54Z</time>
      </trkpt>
      <trkpt lat="59.9790369" lon="17.7391492">
        <ele>40.5128</ele>
        <time>2013-04-15T19:16:55Z</time>
      </trkpt>
      <trkpt lat="59.9790494" lon="17.7391488">
        <ele>40.5128</ele>
        <time>2013-04-15T19:16:56Z</time>
      </trkpt>
      <trkpt lat="59.9790636" lon="17.7391454">
        <ele>40.5128</ele>
        <time>2013-04-15T19:16:57Z</time>
      </trkpt>
      <trkpt lat="59.9790773" lon="17.7391391">
        <ele>40.5128</ele>
        <time>2013-04-15T19:16:58Z</time>
      </trkpt>
      <trkpt lat="59.9790884" lon="17.7391326">
        <ele>40.0321</ele>
        <time>2013-04-15T19:16:59Z</time>
      </trkpt>
      <trkpt lat="59.9790997" lon="17.7391243">
        <ele>40.0321</ele>
        <time>2013-04-15T19:17:00Z</time>
      </trkpt>
      <trkpt lat="59.9791116" lon="17.7391161">
        <ele>40.5128</ele>
        <time>2013-04-15T19:17:01Z</time>
      </trkpt>
      <trkpt lat="59.9791219" lon="17.7391083">
        <ele>40.5128</ele>
        <time>2013-04-15T19:17:02Z</time>
      </trkpt>
      <trkpt lat="59.9791334" lon="17.7391006">
        <ele>40.0321</ele>
        <time>2013-04-15T19:17:03Z</time>
      </trkpt>
      <trkpt lat="59.9791408" lon="17.739091">
        <ele>40.0321</ele>
        <time>2013-04-15T19:17:04Z</time>
      </trkpt>
      <trkpt lat="59.9791493" lon="17.7390833">
        <ele>39.5513</ele>
        <time>2013-04-15T19:17:05Z</time>
      </trkpt>
      <trkpt lat="59.9791607" lon="17.7390767">
        <ele>39.5513</ele>
        <time>2013-04-15T19:17:06Z</time>
      </trkpt>
      <trkpt lat="59.9791722" lon="17.739072">
        <ele>39.5513</ele>
        <time>2013-04-15T19:17:07Z</time>
      </trkpt>
      <trkpt lat="59.9791863" lon="17.7390699">
        <ele>40.0321</ele>
        <time>2013-04-15T19:17:08Z</time>
      </trkpt>
      <trkpt lat="59.9791993" lon="17.7390649">
        <ele>40.0321</ele>
        <time>2013-04-15T19:17:09Z</time>
      </trkpt>
      <trkpt lat="59.9792123" lon="17.7390643">
        <ele>40.5128</ele>
        <time>2013-04-15T19:17:10Z</time>
      </trkpt>
      <trkpt lat="59.9792236" lon="17.739068">
        <ele>40.5128</ele>
        <time>2013-04-15T19:17:11Z</time>
      </trkpt>
      <trkpt lat="59.9792344" lon="17.7390706">
        <ele>40.0321</ele>
        <time>2013-04-15T19:17:12Z</time>
      </trkpt>
      <trkpt lat="59.9792465" lon="17.7390706">
        <ele>40.0321</ele>
        <time>2013-04-15T19:17:13Z</time>
      </trkpt>
      <trkpt lat="59.9792598" lon="17.7390714">
        <ele>40.5128</ele>
        <time>2013-04-15T19:17:14Z</time>
      </trkpt>
      <trkpt lat="59.9792723" lon="17.7390704">
        <ele>40.5128</ele>
        <time>2013-04-15T19:17:15Z</time>
      </trkpt>
      <trkpt lat="59.9792837" lon="17.739069">
        <ele>40.5128</ele>
        <time>2013-04-15T19:17:16Z</time>
      </trkpt>
      <trkpt lat="59.9792961" lon="17.7390673">
        <ele>40.9934</ele>
        <time>2013-04-15T19:17:17Z</time>
      </trkpt>
      <trkpt lat="59.9793062" lon="17.7390642">
        <ele>40.5128</ele>
        <time>2013-04-15T19:17:18Z</time>
      </trkpt>
      <trkpt lat="59.9793178" lon="17.7390637">
        <ele>40.5128</ele>
        <time>2013-04-15T19:17:19Z</time>
      </trkpt>
      <trkpt lat="59.9793291" lon="17.7390638">
        <ele>40.5128</ele>
        <time>2013-04-15T19:17:20Z</time>
      </trkpt>
      <trkpt lat="59.9793375" lon="17.7390668">
        <ele>40.5128</ele>
        <time>2013-04-15T19:17:21Z</time>
      </trkpt>
      <trkpt lat="59.9793391" lon="17.7390723">
        <ele>40.5128</ele>
        <time>2013-04-15T19:17:22Z</time>
      </trkpt>
      <trkpt lat="59.9793327" lon="17.7390761">
        <ele>40.5128</ele>
        <time>2013-04-15T19:17:23Z</time>
      </trkpt>
      <trkpt lat="59.9793208" lon="17.7390807">
        <ele>40.5128</ele>
        <time>2013-04-15T19:17:24Z</time>
      </trkpt>
      <trkpt lat="59.97931" lon="17.7390858">
        <ele>40.0321</ele>
        <time>2013-04-15T19:17:25Z</time>
      </trkpt>
      <trkpt lat="59.9792987" lon="17.7390922">
        <ele>40.0321</ele>
        <time>2013-04-15T19:17:26Z</time>
      </trkpt>
      <trkpt lat="59.9792867" lon="17.7390984">
        <ele>40.0321</ele>
        <time>2013-04-15T19:17:27Z</time>
      </trkpt>
      <trkpt lat="59.979275" lon="17.7391057">
        <ele>39.5513</ele>
        <time>2013-04-15T19:17:28Z</time>
      </trkpt>
      <trkpt lat="59.9792623" lon="17.7391141">
        <ele>39.5513</ele>
        <time>2013-04-15T19:17:29Z</time>
      </trkpt>
      <trkpt lat="59.9792503" lon="17.7391244">
        <ele>39.5513</ele>
        <time>2013-04-15T19:17:30Z</time>
      </trkpt>
      <trkpt lat="59.9792386" lon="17.7391329">
        <ele>39.5513</ele>
        <time>2013-04-15T19:17:31Z</time>
      </trkpt>
      <trkpt lat="59.9792301" lon="17.7391387">
        <ele>39.0707</ele>
        <time>2013-04-15T19:17:32Z</time>
      </trkpt>
      <trkpt lat="59.9792232" lon="17.7391497">
        <ele>39.5513</ele>
        <time>2013-04-15T19:17:33Z</time>
      </trkpt>
      <trkpt lat="59.9792135" lon="17.7391611">
        <ele>40.0321</ele>
        <time>2013-04-15T19:17:34Z</time>
      </trkpt>
      <trkpt lat="59.9791997" lon="17.7391724">
        <ele>40.5128</ele>
        <time>2013-04-15T19:17:35Z</time>
      </trkpt>
      <trkpt lat="59.9791847" lon="17.7391792">
        <ele>40.0321</ele>
        <time>2013-04-15T19:17:36Z</time>
      </trkpt>
      <trkpt lat="59.9791723" lon="17.739192">
        <ele>40.0321</ele>
        <time>2013-04-15T19:17:37Z</time>
      </trkpt>
      <trkpt lat="59.9791615" lon="17.7392014">
        <ele>40.0321</ele>
        <time>2013-04-15T19:17:38Z</time>
      </trkpt>
      <trkpt lat="59.979152" lon="17.7392062">
        <ele>40.0321</ele>
        <time>2013-04-15T19:17:39Z</time>
      </trkpt>
      <trkpt lat="59.9791418" lon="17.7392134">
        <ele>40.0321</ele>
        <time>2013-04-15T19:17:40Z</time>
      </trkpt>
      <trkpt lat="59.979133" lon="17.7392215">
        <ele>40.0321</ele>
        <time>2013-04-15T19:17:41Z</time>
      </trkpt>
      <trkpt lat="59.9791205" lon="17.7392298">
        <ele>40.0321</ele>
        <time>2013-04-15T19:17:42Z</time>
      </trkpt>
      <trkpt lat="59.9791074" lon="17.7392356">
        <ele>39.5513</ele>
        <time>2013-04-15T19:17:43Z</time>
      </trkpt>
      <trkpt lat="59.9790965" lon="17.7392448">
        <ele>39.5513</ele>
        <time>2013-04-15T19:17:44Z</time>
      </trkpt>
      <trkpt lat="59.9790841" lon="17.7392512">
        <ele>39.0707</ele>
        <time>2013-04-15T19:17:45Z</time>
      </trkpt>
      <trkpt lat="59.9790733" lon="17.7392528">
        <ele>39.0707</ele>
        <time>2013-04-15T19:17:46Z</time>
      </trkpt>
      <trkpt lat="59.9790675" lon="17.7392584">
        <ele>39.0707</ele>
        <time>2013-04-15T19:17:47Z</time>
      </trkpt>
      <trkpt lat="59.9790574" lon="17.7392655">
        <ele>39.0707</ele>
        <time>2013-04-15T19:17:48Z</time>
      </trkpt>
      <trkpt lat="59.9790405" lon="17.7392776">
        <ele>39.0707</ele>
        <time>2013-04-15T19:17:49Z</time>
      </trkpt>
      <trkpt lat="59.9790294" lon="17.7392972">
        <ele>40.9934</ele>
        <time>2013-04-15T19:17:50Z</time>
      </trkpt>
      <trkpt lat="59.9790152" lon="17.7393067">
        <ele>41.474</ele>
        <time>2013-04-15T19:17:51Z</time>
      </trkpt>
      <trkpt lat="59.9789988" lon="17.7393169">
        <ele>41.9547</ele>
        <time>2013-04-15T19:17:52Z</time>
      </trkpt>
      <trkpt lat="59.9789893" lon="17.7393222">
        <ele>41.474</ele>
        <time>2013-04-15T19:17:53Z</time>
      </trkpt>
      <trkpt lat="59.9789783" lon="17.7393285">
        <ele>40.9934</ele>
        <time>2013-04-15T19:17:54Z</time>
      </trkpt>
      <trkpt lat="59.9789659" lon="17.7393375">
        <ele>40.9934</ele>
        <time>2013-04-15T19:17:55Z</time>
      </trkpt>
      <trkpt lat="59.9789511" lon="17.7393456">
        <ele>40.9934</ele>
        <time>2013-04-15T19:17:56Z</time>
      </trkpt>
      <trkpt lat="59.9789385" lon="17.7393541">
        <ele>41.474</ele>
        <time>2013-04-15T19:17:57Z</time>
      </trkpt>
      <trkpt lat="59.9789278" lon="17.7393683">
        <ele>41.474</ele>
        <time>2013-04-15T19:17:58Z</time>
      </trkpt>
      <trkpt lat="59.9789205" lon="17.7393898">
        <ele>40.9934</ele>
        <time>2013-04-15T19:17:59Z</time>
      </trkpt>
      <trkpt lat="59.9789153" lon="17.7394111">
        <ele>40.5128</ele>
        <time>2013-04-15T19:18:00Z</time>
      </trkpt>
      <trkpt lat="59.978912" lon="17.739436">
        <ele>40.0321</ele>
        <time>2013-04-15T19:18:01Z</time>
      </trkpt>
      <trkpt lat="59.9789105" lon="17.739459">
        <ele>40.0321</ele>
        <time>2013-04-15T19:18:02Z</time>
      </trkpt>
      <trkpt lat="59.9789071" lon="17.73948">
        <ele>40.0321</ele>
        <time>2013-04-15T19:18:03Z</time>
      </trkpt>
      <trkpt lat="59.9789024" lon="17.7394979">
        <ele>39.5513</ele>
        <time>2013-04-15T19:18:04Z</time>
      </trkpt>
      <trkpt lat="59.9788967" lon="17.739518">
        <ele>39.0707</ele>
        <time>2013-04-15T19:18:05Z</time>
      </trkpt>
      <trkpt lat="59.9788884" lon="17.7395387">
        <ele>38.5901</ele>
        <time>2013-04-15T19:18:06Z</time>
      </trkpt>
      <trkpt lat="59.9788805" lon="17.7395567">
        <ele>38.5901</ele>
        <time>2013-04-15T19:18:07Z</time>
      </trkpt>
      <trkpt lat="59.9788747" lon="17.7395758">
        <ele>38.5901</ele>
        <time>2013-04-15T19:18:08Z</time>
      </trkpt>
      <trkpt lat="59.9788691" lon="17.73959">
        <ele>39.0707</ele>
        <time>2013-04-15T19:18:09Z</time>
      </trkpt>
      <trkpt lat="59.9788619" lon="17.7396079">
        <ele>39.0707</ele>
        <time>2013-04-15T19:18:10Z</time>
      </trkpt>
      <trkpt lat="59.9788533" lon="17.7396241">
        <ele>39.0707</ele>
        <time>2013-04-15T19:18:11Z</time>
      </trkpt>
      <trkpt lat="59.9788452" lon="17.7396419">
        <ele>39.0707</ele>
        <time>2013-04-15T19:18:12Z</time>
      </trkpt>
      <trkpt lat="59.9788365" lon="17.739653">
        <ele>39.0707</ele>
        <time>2013-04-15T19:18:13Z</time>
      </trkpt>
      <trkpt lat="59.9788292" lon="17.7396619">
        <ele>39.0707</ele>
        <time>2013-04-15T19:18:14Z</time>
      </trkpt>
      <trkpt lat="59.9788232" lon="17.7396776">
        <ele>39.5513</ele>
        <time>2013-04-15T19:18:15Z</time>
      </trkpt>
      <trkpt lat="59.9788169" lon="17.7396929">
        <ele>39.5513</ele>
        <time>2013-04-15T19:18:16Z</time>
      </trkpt>
      <trkpt lat="59.9788133" lon="17.739712">
        <ele>39.0707</ele>
        <time>2013-04-15T19:18:17Z</time>
      </trkpt>
      <trkpt lat="59.9788096" lon="17.7397335">
        <ele>38.5901</ele>
        <time>2013-04-15T19:18:18Z</time>
      </trkpt>
      <trkpt lat="59.9788051" lon="17.7397573">
        <ele>38.5901</ele>
        <time>2013-04-15T19:18:19Z</time>
      </trkpt>
      <trkpt lat="59.9788061" lon="17.7397771">
        <ele>38.5901</ele>
        <time>2013-04-15T19:18:20Z</time>
      </trkpt>
      <trkpt lat="59.9788071" lon="17.7397962">
        <ele>38.5901</ele>
        <time>2013-04-15T19:18:21Z</time>
      </trkpt>
      <trkpt lat="59.9788096" lon="17.7398143">
        <ele>38.5901</ele>
        <time>2013-04-15T19:18:22Z</time>
      </trkpt>
      <trkpt lat="59.9788123" lon="17.7398318">
        <ele>39.0707</ele>
        <time>2013-04-15T19:18:23Z</time>
      </trkpt>
      <trkpt lat="59.9788139" lon="17.7398475">
        <ele>39.0707</ele>
        <time>2013-04-15T19:18:24Z</time>
      </trkpt>
      <trkpt lat="59.9788181" lon="17.7398655">
        <ele>39.0707</ele>
        <time>2013-04-15T19:18:25Z</time>
      </trkpt>
      <trkpt lat="59.9788233" lon="17.7398847">
        <ele>39.5513</ele>
        <time>2013-04-15T19:18:26Z</time>
      </trkpt>
      <trkpt lat="59.9788276" lon="17.7399002">
        <ele>40.0321</ele>
        <time>2013-04-15T19:18:27Z</time>
      </trkpt>
      <trkpt lat="59.9788304" lon="17.7399102">
        <ele>39.5513</ele>
        <time>2013-04-15T19:18:28Z</time>
      </trkpt>
      <trkpt lat="59.9788317" lon="17.7399174">
        <ele>39.0707</ele>
        <time>2013-04-15T19:18:29Z</time>
      </trkpt>
      <trkpt lat="59.978834" lon="17.7399174">
        <ele>39.5513</ele>
        <time>2013-04-15T19:18:30Z</time>
      </trkpt>
      <trkpt lat="59.9788375" lon="17.7399153">
        <ele>39.5513</ele>
        <time>2013-04-15T19:18:31Z</time>
      </trkpt>
      <trkpt lat="59.9788396" lon="17.7399133">
        <ele>39.0707</ele>
        <time>2013-04-15T19:18:32Z</time>
      </trkpt>
      <trkpt lat="59.9788459" lon="17.7399096">
        <ele>39.0707</ele>
        <time>2013-04-15T19:18:33Z</time>
      </trkpt>
    </trkseg>
  </trk>
</gpx>